createdAt,value
2019-05-15T00:00:09.228Z,7.31
2019-05-15T00:01:09.218Z,7.28
2019-05-15T00:02:10.929Z,7.31
2019-05-15T00:03:09.196Z,7.31
2019-05-15T00:04:09.443Z,7.34
2019-05-15T00:05:09.277Z,7.24
2019-05-15T00:06:09.160Z,7.15
2019-05-15T00:07:09.172Z,7.13
2019-05-15T00:08:09.810Z,7.13
2019-05-15T00:09:09.149Z,7.06
2019-05-15T00:10:09.174Z,7.07
2019-05-15T00:11:09.112Z,6.96
2019-05-15T00:12:09.118Z,6.96
2019-05-15T00:13:09.512Z,6.99
2019-05-15T00:14:09.073Z,7.03
2019-05-15T00:15:09.579Z,6.99
2019-05-15T00:16:09.050Z,6.97
2019-05-15T00:17:09.063Z,6.89
2019-05-15T00:18:09.051Z,6.96
2019-05-15T00:19:09.022Z,6.93
2019-05-15T00:20:10.034Z,7.03
2019-05-15T00:21:09.488Z,6.97
2019-05-15T00:22:09.007Z,6.93
2019-05-15T00:23:08.978Z,6.91
2019-05-15T00:24:13.093Z,6.91
2019-05-15T00:25:09.496Z,6.96
2019-05-15T00:26:09.390Z,6.91
2019-05-15T00:27:08.955Z,6.89
2019-05-15T00:28:09.715Z,6.92
2019-05-15T00:29:15.134Z,6.85
2019-05-15T00:30:08.900Z,6.96
2019-05-15T00:31:09.232Z,6.97
2019-05-15T00:32:09.235Z,6.92
2019-05-15T00:33:09.411Z,6.83
2019-05-15T00:34:12.793Z,6.85
2019-05-15T00:35:09.500Z,6.85
2019-05-15T00:36:08.940Z,6.79
2019-05-15T00:37:09.106Z,6.79
2019-05-15T00:38:09.489Z,6.68
2019-05-15T00:39:08.803Z,6.67
2019-05-15T00:40:09.136Z,6.71
2019-05-15T00:41:09.564Z,6.68
2019-05-15T00:42:08.801Z,6.70
2019-05-15T00:43:09.042Z,6.60
2019-05-15T00:44:09.327Z,6.63
2019-05-15T00:45:09.419Z,6.61
2019-05-15T00:46:09.316Z,6.53
2019-05-15T00:47:10.447Z,6.56
2019-05-15T00:48:09.075Z,6.55
2019-05-15T00:49:08.849Z,6.52
2019-05-15T00:50:08.998Z,6.60
2019-05-15T00:51:08.669Z,6.56
2019-05-15T00:52:12.102Z,6.47
2019-05-15T00:53:08.901Z,6.60
2019-05-15T00:54:08.649Z,6.46
2019-05-15T00:55:08.953Z,6.49
2019-05-15T00:56:09.013Z,6.49
2019-05-15T00:57:08.688Z,6.46
2019-05-15T00:58:08.916Z,6.46
2019-05-15T00:59:08.587Z,6.43
2019-05-15T01:00:08.571Z,6.47
2019-05-15T01:01:08.568Z,6.45
2019-05-15T01:02:08.805Z,6.52
2019-05-15T01:03:08.917Z,6.50
2019-05-15T01:04:08.530Z,6.38
2019-05-15T01:05:08.591Z,6.45
2019-05-15T01:06:08.632Z,6.43
2019-05-15T01:07:08.524Z,6.35
2019-05-15T01:08:08.515Z,6.37
2019-05-15T01:09:08.546Z,6.31
2019-05-15T01:10:09.832Z,6.27
2019-05-15T01:11:09.041Z,6.32
2019-05-15T01:12:09.029Z,6.28
2019-05-15T01:13:08.778Z,6.34
2019-05-15T01:14:12.147Z,6.31
2019-05-15T01:15:09.228Z,6.25
2019-05-15T01:16:09.149Z,6.11
2019-05-15T01:17:09.077Z,6.09
2019-05-15T01:18:09.386Z,6.19
2019-05-15T01:19:09.214Z,6.18
2019-05-15T01:20:08.700Z,6.18
2019-05-15T01:21:08.601Z,6.16
2019-05-15T01:22:08.834Z,6.09
2019-05-15T01:23:09.068Z,6.13
2019-05-15T01:24:08.517Z,6.11
2019-05-15T01:25:08.819Z,6.09
2019-05-15T01:26:08.526Z,6.08
2019-05-15T01:27:09.099Z,6.09
2019-05-15T01:28:09.484Z,6.08
2019-05-15T01:29:09.118Z,6.11
2019-05-15T01:30:09.037Z,6.02
2019-05-15T01:31:08.736Z,6.06
2019-05-15T01:32:08.535Z,5.95
2019-05-15T01:33:08.486Z,5.94
2019-05-15T01:34:09.025Z,5.93
2019-05-15T01:35:09.458Z,6.00
2019-05-15T01:36:08.619Z,5.91
2019-05-15T01:37:08.650Z,5.88
2019-05-15T01:38:08.458Z,5.90
2019-05-15T01:39:08.152Z,5.90
2019-05-15T01:40:08.847Z,5.88
2019-05-15T01:41:09.711Z,5.82
2019-05-15T01:42:08.409Z,5.90
2019-05-15T01:43:09.036Z,5.95
2019-05-15T01:44:08.792Z,5.90
2019-05-15T01:45:08.689Z,5.98
2019-05-15T01:46:08.542Z,5.91
2019-05-15T01:47:08.562Z,5.94
2019-05-15T01:48:08.306Z,5.87
2019-05-15T01:49:08.121Z,5.80
2019-05-15T01:50:09.341Z,5.82
2019-05-15T01:51:09.291Z,5.79
2019-05-15T01:52:08.143Z,5.76
2019-05-15T01:53:08.445Z,5.65
2019-05-15T01:54:09.171Z,5.82
2019-05-15T01:55:09.112Z,5.76
2019-05-15T01:56:08.510Z,5.79
2019-05-15T01:57:09.354Z,5.80
2019-05-15T01:58:09.049Z,5.79
2019-05-15T01:59:08.653Z,5.75
2019-05-15T02:00:08.763Z,5.75
2019-05-15T02:01:08.288Z,5.76
2019-05-15T02:02:09.614Z,5.82
2019-05-15T02:03:09.852Z,5.76
2019-05-15T02:04:08.344Z,5.77
2019-05-15T02:05:08.365Z,5.67
2019-05-15T02:06:08.354Z,5.66
2019-05-15T02:07:08.318Z,5.66
2019-05-15T02:08:08.337Z,5.69
2019-05-15T02:09:08.397Z,5.65
2019-05-15T02:10:09.148Z,5.69
2019-05-15T02:11:09.090Z,5.67
2019-05-15T02:12:08.664Z,5.51
2019-05-15T02:13:08.576Z,5.55
2019-05-15T02:14:08.290Z,5.54
2019-05-15T02:15:08.553Z,5.54
2019-05-15T02:16:08.348Z,5.57
2019-05-15T02:17:08.467Z,5.54
2019-05-15T02:18:08.422Z,5.52
2019-05-15T02:19:08.991Z,5.54
2019-05-15T02:20:08.363Z,5.47
2019-05-15T02:21:10.384Z,5.54
2019-05-15T02:22:08.400Z,5.48
2019-05-15T02:23:11.647Z,5.54
2019-05-15T02:24:08.034Z,5.59
2019-05-15T02:25:08.527Z,5.50
2019-05-15T02:26:08.071Z,5.40
2019-05-15T02:27:09.027Z,5.44
2019-05-15T02:28:09.446Z,5.47
2019-05-15T02:29:08.319Z,5.40
2019-05-15T02:30:21.084Z,5.33
2019-05-15T02:31:10.568Z,5.43
2019-05-15T02:32:10.134Z,5.43
2019-05-15T02:33:10.564Z,5.41
2019-05-15T02:34:10.201Z,5.44
2019-05-15T02:35:10.047Z,5.33
2019-05-15T02:36:09.791Z,5.34
2019-05-15T02:37:08.979Z,5.44
2019-05-15T02:38:10.136Z,5.37
2019-05-15T02:39:08.888Z,5.34
2019-05-15T02:40:09.896Z,5.34
2019-05-15T02:41:09.833Z,5.32
2019-05-15T02:42:09.963Z,5.24
2019-05-15T02:43:09.995Z,5.24
2019-05-15T02:44:10.657Z,5.18
2019-05-15T02:45:09.952Z,5.12
2019-05-15T02:46:10.024Z,5.11
2019-05-15T02:47:09.257Z,5.14
2019-05-15T02:48:08.961Z,5.06
2019-05-15T02:49:08.813Z,5.04
2019-05-15T02:50:10.643Z,5.03
2019-05-15T02:51:09.679Z,5.01
2019-05-15T02:52:09.832Z,5.03
2019-05-15T02:53:10.060Z,5.03
2019-05-15T02:54:10.302Z,5.04
2019-05-15T02:55:09.273Z,5.03
2019-05-15T02:56:09.389Z,5.09
2019-05-15T02:57:09.807Z,5.06
2019-05-15T02:58:10.051Z,5.06
2019-05-15T02:59:09.200Z,5.07
2019-05-15T03:00:10.929Z,5.00
2019-05-15T03:01:09.313Z,5.06
2019-05-15T03:02:10.073Z,5.01
2019-05-15T03:03:09.490Z,5.04
2019-05-15T03:04:09.248Z,5.04
2019-05-15T03:05:09.243Z,4.97
2019-05-15T03:06:09.985Z,4.97
2019-05-15T03:07:09.636Z,5.00
2019-05-15T03:08:09.665Z,4.96
2019-05-15T03:09:09.524Z,5.07
2019-05-15T03:10:09.341Z,4.98
2019-05-15T03:11:09.871Z,4.93
2019-05-15T03:12:09.123Z,4.96
2019-05-15T03:13:09.788Z,4.97
2019-05-15T03:14:09.304Z,5.03
2019-05-15T03:15:09.684Z,4.91
2019-05-15T03:16:10.004Z,4.94
2019-05-15T03:17:09.788Z,5.00
2019-05-15T03:18:09.577Z,4.91
2019-05-15T03:19:09.972Z,4.96
2019-05-15T03:20:10.481Z,4.97
2019-05-15T03:21:09.628Z,4.96
2019-05-15T03:22:09.830Z,4.98
2019-05-15T03:23:09.733Z,4.97
2019-05-15T03:24:09.856Z,5.04
2019-05-15T03:25:10.597Z,5.00
2019-05-15T03:26:08.907Z,4.98
2019-05-15T03:27:09.146Z,4.98
2019-05-15T03:28:10.103Z,4.98
2019-05-15T03:29:09.845Z,5.00
2019-05-15T03:30:12.246Z,4.97
2019-05-15T03:31:26.500Z,4.97
2019-05-15T03:32:24.226Z,4.96
2019-05-15T03:33:11.502Z,4.94
2019-05-15T03:34:19.980Z,5.00
2019-05-15T03:35:13.274Z,5.00
2019-05-15T03:36:12.502Z,5.00
2019-05-15T03:37:11.621Z,4.96
2019-05-15T03:38:09.304Z,4.88
2019-05-15T03:39:09.541Z,4.93
2019-05-15T03:40:09.841Z,4.97
2019-05-15T03:41:09.885Z,4.93
2019-05-15T03:42:09.630Z,4.88
2019-05-15T03:43:09.144Z,4.86
2019-05-15T03:44:09.507Z,4.78
2019-05-15T03:45:09.618Z,4.78
2019-05-15T03:46:09.098Z,4.75
2019-05-15T03:47:09.262Z,4.69
2019-05-15T03:48:09.400Z,4.78
2019-05-15T03:49:08.643Z,4.75
2019-05-15T03:50:09.069Z,4.74
2019-05-15T03:51:09.223Z,4.66
2019-05-15T03:52:09.789Z,4.71
2019-05-15T03:53:09.782Z,4.67
2019-05-15T03:54:09.308Z,4.74
2019-05-15T03:55:10.131Z,4.78
2019-05-15T03:56:09.543Z,4.64
2019-05-15T03:57:09.569Z,4.72
2019-05-15T03:58:09.905Z,4.72
2019-05-15T03:59:09.350Z,4.56
2019-05-15T04:00:09.369Z,4.71
2019-05-15T04:01:27.722Z,4.67
2019-05-15T04:02:08.653Z,4.69
2019-05-15T04:03:10.256Z,4.61
2019-05-15T04:04:09.423Z,4.56
2019-05-15T04:05:06.560Z,4.60
2019-05-15T04:06:09.682Z,4.57
2019-05-15T04:07:09.258Z,4.61
2019-05-15T04:08:10.377Z,4.64
2019-05-15T04:09:09.328Z,4.60
2019-05-15T04:10:09.549Z,4.51
2019-05-15T04:11:09.136Z,4.54
2019-05-15T04:12:09.340Z,4.53
2019-05-15T04:13:09.420Z,4.54
2019-05-15T04:14:09.894Z,4.57
2019-05-15T04:15:09.788Z,4.53
2019-05-15T04:16:09.990Z,4.45
2019-05-15T04:17:09.094Z,4.51
2019-05-15T04:18:09.248Z,4.51
2019-05-15T04:19:09.407Z,4.48
2019-05-15T04:20:09.581Z,4.49
2019-05-15T04:21:09.004Z,4.51
2019-05-15T04:22:09.088Z,4.51
2019-05-15T04:23:09.791Z,4.49
2019-05-15T04:24:09.270Z,4.49
2019-05-15T04:25:09.360Z,4.54
2019-05-15T04:26:09.212Z,4.49
2019-05-15T04:27:10.548Z,4.48
2019-05-15T04:28:09.388Z,4.51
2019-05-15T04:29:09.503Z,4.53
2019-05-15T04:30:06.289Z,4.56
2019-05-15T04:31:09.248Z,4.53
2019-05-15T04:32:06.369Z,4.59
2019-05-15T04:33:09.083Z,4.54
2019-05-15T04:34:08.992Z,4.61
2019-05-15T04:35:09.182Z,4.59
2019-05-15T04:36:09.480Z,4.57
2019-05-15T04:37:09.200Z,4.66
2019-05-15T04:38:09.079Z,4.53
2019-05-15T04:39:09.545Z,4.57
2019-05-15T04:40:09.242Z,4.57
2019-05-15T04:41:09.427Z,4.51
2019-05-15T04:42:08.244Z,4.61
2019-05-15T04:43:06.146Z,4.59
2019-05-15T04:44:06.218Z,4.57
2019-05-15T04:45:09.660Z,4.61
2019-05-15T04:46:09.523Z,4.59
2019-05-15T04:47:09.436Z,4.57
2019-05-15T04:48:09.506Z,4.56
2019-05-15T04:49:09.146Z,4.57
2019-05-15T04:50:08.908Z,4.59
2019-05-15T04:51:09.452Z,4.54
2019-05-15T04:52:06.046Z,4.59
2019-05-15T04:53:06.036Z,4.67
2019-05-15T04:54:09.282Z,4.67
2019-05-15T04:55:09.678Z,4.71
2019-05-15T04:56:09.200Z,4.67
2019-05-15T04:57:09.022Z,4.66
2019-05-15T04:58:05.992Z,4.72
2019-05-15T04:59:05.970Z,4.67
2019-05-15T05:00:09.199Z,4.72
2019-05-15T05:01:09.151Z,4.67
2019-05-15T05:02:26.761Z,4.72
2019-05-15T05:03:09.859Z,4.61
2019-05-15T05:04:05.918Z,4.69
2019-05-15T05:05:05.939Z,4.74
2019-05-15T05:06:05.896Z,4.85
2019-05-15T05:07:05.882Z,4.88
2019-05-15T05:08:09.083Z,4.74
2019-05-15T05:09:08.933Z,4.86
2019-05-15T05:10:09.166Z,4.89
2019-05-15T05:11:05.843Z,5.01
2019-05-15T05:12:08.412Z,5.01
2019-05-15T05:13:08.509Z,4.94
2019-05-15T05:14:08.241Z,5.04
2019-05-15T05:15:08.291Z,4.91
2019-05-15T05:16:05.787Z,5.04
2019-05-15T05:17:08.806Z,4.97
2019-05-15T05:18:05.765Z,5.00
2019-05-15T05:19:08.721Z,5.06
2019-05-15T05:20:07.959Z,5.01
2019-05-15T05:21:07.693Z,5.03
2019-05-15T05:22:07.730Z,5.01
2019-05-15T05:23:05.706Z,5.12
2019-05-15T05:24:07.837Z,5.04
2019-05-15T05:25:07.862Z,5.12
2019-05-15T05:26:08.830Z,5.12
2019-05-15T05:27:05.672Z,5.14
2019-05-15T05:28:05.653Z,5.18
2019-05-15T05:29:05.643Z,5.22
2019-05-15T05:30:08.165Z,5.29
2019-05-15T05:31:08.161Z,5.27
2019-05-15T05:32:05.610Z,5.29
2019-05-15T05:33:05.601Z,5.33
2019-05-15T05:34:05.590Z,5.33
2019-05-15T05:35:08.166Z,5.41
2019-05-15T05:36:07.715Z,5.40
2019-05-15T05:37:07.707Z,5.43
2019-05-15T05:38:07.749Z,5.41
2019-05-15T05:39:05.537Z,5.39
2019-05-15T05:40:07.882Z,5.54
2019-05-15T05:41:07.950Z,5.40
2019-05-15T05:42:07.775Z,5.62
2019-05-15T05:43:05.490Z,5.59
2019-05-15T05:44:05.481Z,5.61
2019-05-15T05:45:05.494Z,5.61
2019-05-15T05:46:05.457Z,5.67
2019-05-15T05:47:05.452Z,5.69
2019-05-15T05:48:05.437Z,5.70
2019-05-15T05:49:07.968Z,5.75
2019-05-15T05:50:07.771Z,5.84
2019-05-15T05:51:05.405Z,5.87
2019-05-15T05:52:05.394Z,5.88
2019-05-15T05:53:05.382Z,5.85
2019-05-15T05:54:05.370Z,5.94
2019-05-15T05:55:05.363Z,5.93
2019-05-15T05:56:05.374Z,5.95
2019-05-15T05:57:05.342Z,6.00
2019-05-15T05:58:08.033Z,5.97
2019-05-15T05:59:05.319Z,6.12
2019-05-15T06:00:05.308Z,6.12
2019-05-15T06:01:05.319Z,6.15
2019-05-15T06:02:08.022Z,6.12
2019-05-15T06:03:05.277Z,6.19
2019-05-15T06:04:05.269Z,6.24
2019-05-15T06:05:07.766Z,6.31
2019-05-15T06:06:05.269Z,6.30
2019-05-15T06:07:10.041Z,6.37
2019-05-15T06:08:05.222Z,6.38
2019-05-15T06:09:05.211Z,6.38
2019-05-15T06:10:05.205Z,6.43
2019-05-15T06:11:05.212Z,6.47
2019-05-15T06:12:05.190Z,6.49
2019-05-15T06:13:05.163Z,6.53
2019-05-15T06:14:05.153Z,6.55
2019-05-15T06:15:05.145Z,6.64
2019-05-15T06:16:05.154Z,6.64
2019-05-15T06:17:05.181Z,6.61
2019-05-15T06:18:05.109Z,6.67
2019-05-15T06:19:05.103Z,6.83
2019-05-15T06:20:05.115Z,6.85
2019-05-15T06:21:05.099Z,6.88
2019-05-15T06:22:05.072Z,6.93
2019-05-15T06:23:05.057Z,6.97
2019-05-15T06:24:06.095Z,6.91
2019-05-15T06:25:05.296Z,6.93
2019-05-15T06:26:05.077Z,7.06
2019-05-15T06:27:05.016Z,7.08
2019-05-15T06:28:05.002Z,7.08
2019-05-15T06:29:04.992Z,7.21
2019-05-15T06:30:04.980Z,7.31
2019-05-15T06:31:04.997Z,7.34
2019-05-15T06:32:04.961Z,7.29
2019-05-15T06:33:10.638Z,7.29
2019-05-15T06:34:08.222Z,7.36
2019-05-15T06:35:04.932Z,7.50
2019-05-15T06:36:04.944Z,7.52
2019-05-15T06:37:04.901Z,7.49
2019-05-15T06:38:04.898Z,7.60
2019-05-15T06:39:04.882Z,7.58
2019-05-15T06:40:04.865Z,7.61
2019-05-15T06:41:04.883Z,7.71
2019-05-15T06:42:04.850Z,7.71
2019-05-15T06:43:04.832Z,7.84
2019-05-15T06:44:04.821Z,7.81
2019-05-15T06:45:04.814Z,7.86
2019-05-15T06:46:04.822Z,7.87
2019-05-15T06:47:04.790Z,7.96
2019-05-15T06:48:04.779Z,7.94
2019-05-15T06:49:04.767Z,7.98
2019-05-15T06:50:04.754Z,8.10
2019-05-15T06:51:04.765Z,8.02
2019-05-15T06:52:04.733Z,8.16
2019-05-15T06:53:07.705Z,8.24
2019-05-15T06:54:04.719Z,8.35
2019-05-15T06:55:04.700Z,8.31
2019-05-15T06:56:04.716Z,8.39
2019-05-15T06:57:04.680Z,8.42
2019-05-15T06:58:04.672Z,8.47
2019-05-15T06:59:04.655Z,8.50
2019-05-15T07:00:04.649Z,8.63
2019-05-15T07:01:04.664Z,8.70
2019-05-15T07:02:04.639Z,8.60
2019-05-15T07:03:16.826Z,8.74
2019-05-15T07:04:04.600Z,8.75
2019-05-15T07:05:04.598Z,8.78
2019-05-15T07:06:04.604Z,8.81
2019-05-15T07:07:04.587Z,8.89
2019-05-15T07:08:04.560Z,9.04
2019-05-15T07:09:04.543Z,9.03
2019-05-15T07:10:04.534Z,9.16
2019-05-15T07:11:04.543Z,9.19
2019-05-15T07:12:04.511Z,9.24
2019-05-15T07:13:04.497Z,9.33
2019-05-15T07:14:04.491Z,9.34
2019-05-15T07:15:04.478Z,9.33
2019-05-15T07:16:04.465Z,9.41
2019-05-15T07:17:04.498Z,9.48
2019-05-15T07:18:04.444Z,9.54
2019-05-15T07:19:04.436Z,9.51
2019-05-15T07:20:04.423Z,9.59
2019-05-15T07:21:04.479Z,9.59
2019-05-15T07:22:04.423Z,9.52
2019-05-15T07:23:04.389Z,9.60
2019-05-15T07:24:04.384Z,9.65
2019-05-15T07:25:04.365Z,9.65
2019-05-15T07:26:04.354Z,9.73
2019-05-15T07:27:04.365Z,9.66
2019-05-15T07:28:04.332Z,9.83
2019-05-15T07:29:04.319Z,9.85
2019-05-15T07:30:04.308Z,9.84
2019-05-15T07:31:04.302Z,9.88
2019-05-15T07:32:04.310Z,9.93
2019-05-15T07:33:04.278Z,10.05
2019-05-15T07:34:04.267Z,10.02
2019-05-15T07:35:04.253Z,10.03
2019-05-15T07:36:04.244Z,10.20
2019-05-15T07:37:04.269Z,10.06
2019-05-15T07:38:04.225Z,10.08
2019-05-15T07:39:04.212Z,10.12
2019-05-15T07:40:04.198Z,10.17
2019-05-15T07:41:04.562Z,10.18
2019-05-15T07:42:04.201Z,10.26
2019-05-15T07:43:04.260Z,10.38
2019-05-15T07:44:04.157Z,10.36
2019-05-15T07:45:04.148Z,10.43
2019-05-15T07:46:04.130Z,10.48
2019-05-15T07:47:04.149Z,10.54
2019-05-15T07:48:04.112Z,10.55
2019-05-15T07:49:04.098Z,10.55
2019-05-15T07:50:04.088Z,10.68
2019-05-15T07:51:04.080Z,10.68
2019-05-15T07:52:04.091Z,10.80
2019-05-15T07:53:04.053Z,10.82
2019-05-15T07:54:04.044Z,10.86
2019-05-15T07:55:04.034Z,10.83
2019-05-15T07:56:04.033Z,10.85
2019-05-15T07:57:04.032Z,10.95
2019-05-15T07:58:04.007Z,10.98
2019-05-15T07:59:03.993Z,11.11
2019-05-15T08:00:03.989Z,11.04
2019-05-15T08:01:05.490Z,11.13
2019-05-15T08:02:03.979Z,11.16
2019-05-15T08:03:03.946Z,11.11
2019-05-15T08:04:22.737Z,11.22
2019-05-15T08:05:03.924Z,11.22
2019-05-15T08:06:03.913Z,11.27
2019-05-15T08:07:03.926Z,11.38
2019-05-15T08:08:03.899Z,11.41
2019-05-15T08:09:03.892Z,11.51
2019-05-15T08:10:03.871Z,11.49
2019-05-15T08:11:16.240Z,11.56
2019-05-15T08:12:03.870Z,11.67
2019-05-15T08:13:03.835Z,11.66
2019-05-15T08:14:03.874Z,11.79
2019-05-15T08:15:03.827Z,11.84
2019-05-15T08:16:03.802Z,11.82
2019-05-15T08:17:03.814Z,11.77
2019-05-15T08:18:09.027Z,11.87
2019-05-15T08:19:04.773Z,11.95
2019-05-15T08:20:03.796Z,11.99
2019-05-15T08:21:03.750Z,12.08
2019-05-15T08:22:03.761Z,12.08
2019-05-15T08:23:03.729Z,12.14
2019-05-15T08:24:03.711Z,12.10
2019-05-15T08:25:06.781Z,12.15
2019-05-15T08:26:03.694Z,12.23
2019-05-15T08:27:03.700Z,12.33
2019-05-15T08:28:03.671Z,12.38
2019-05-15T08:29:03.655Z,12.41
2019-05-15T08:30:03.652Z,12.46
2019-05-15T08:31:06.492Z,12.47
2019-05-15T08:32:03.651Z,12.51
2019-05-15T08:33:03.693Z,12.58
2019-05-15T08:34:15.297Z,12.54
2019-05-15T08:35:04.594Z,12.58
2019-05-15T08:36:03.584Z,12.63
2019-05-15T08:37:03.570Z,12.65
2019-05-15T08:38:03.584Z,12.72
2019-05-15T08:39:03.548Z,12.79
2019-05-15T08:40:03.545Z,12.83
2019-05-15T08:41:03.528Z,12.80
2019-05-15T08:42:03.515Z,12.80
2019-05-15T08:43:03.529Z,12.93
2019-05-15T08:44:03.494Z,12.96
2019-05-15T08:45:03.481Z,12.91
2019-05-15T08:46:03.474Z,12.93
2019-05-15T08:47:03.457Z,12.99
2019-05-15T08:48:03.472Z,13.02
2019-05-15T08:49:03.441Z,13.01
2019-05-15T08:50:03.431Z,13.04
2019-05-15T08:51:03.413Z,13.04
2019-05-15T08:52:03.408Z,13.08
2019-05-15T08:53:03.440Z,13.13
2019-05-15T08:54:03.385Z,13.24
2019-05-15T08:55:03.369Z,13.30
2019-05-15T08:56:03.361Z,13.30
2019-05-15T08:57:03.351Z,13.36
2019-05-15T08:58:08.504Z,13.46
2019-05-15T08:59:04.330Z,13.47
2019-05-15T09:00:03.316Z,13.58
2019-05-15T09:01:03.310Z,13.61
2019-05-15T09:02:03.292Z,13.58
2019-05-15T09:03:03.305Z,13.72
2019-05-15T09:04:03.273Z,13.79
2019-05-15T09:05:03.261Z,13.83
2019-05-15T09:06:03.251Z,13.72
2019-05-15T09:07:03.239Z,13.82
2019-05-15T09:08:03.300Z,13.86
2019-05-15T09:09:03.310Z,13.96
2019-05-15T09:10:03.237Z,13.98
2019-05-15T09:11:03.219Z,14.04
2019-05-15T09:12:03.233Z,14.11
2019-05-15T09:13:03.199Z,14.04
2019-05-15T09:14:03.168Z,14.13
2019-05-15T09:15:03.158Z,14.16
2019-05-15T09:16:03.140Z,14.22
2019-05-15T09:17:03.127Z,14.23
2019-05-15T09:18:14.686Z,14.28
2019-05-15T09:19:03.112Z,14.30
2019-05-15T09:20:03.093Z,14.28
2019-05-15T09:21:03.088Z,14.36
2019-05-15T09:22:03.076Z,14.45
2019-05-15T09:23:03.085Z,14.52
2019-05-15T09:24:03.050Z,14.48
2019-05-15T09:25:03.042Z,14.52
2019-05-15T09:26:03.030Z,14.52
2019-05-15T09:27:03.017Z,14.45
2019-05-15T09:28:03.038Z,14.55
2019-05-15T09:29:02.996Z,14.56
2019-05-15T09:30:02.997Z,14.63
2019-05-15T09:31:02.982Z,14.58
2019-05-15T09:32:02.972Z,14.53
2019-05-15T09:33:03.029Z,14.69
2019-05-15T09:34:02.945Z,14.71
2019-05-15T09:35:02.931Z,14.78
2019-05-15T09:36:02.920Z,14.83
2019-05-15T09:37:02.911Z,14.86
2019-05-15T09:38:02.921Z,14.79
2019-05-15T09:39:02.885Z,14.87
2019-05-15T09:40:02.873Z,15.01
2019-05-15T09:41:02.864Z,15.10
2019-05-15T09:42:02.856Z,15.14
2019-05-15T09:43:02.865Z,15.04
2019-05-15T09:44:02.833Z,15.12
2019-05-15T09:45:02.819Z,15.04
2019-05-15T09:46:02.808Z,15.10
2019-05-15T09:47:02.797Z,15.08
2019-05-15T09:48:02.812Z,15.14
2019-05-15T09:49:02.784Z,15.01
2019-05-15T09:50:02.767Z,15.17
2019-05-15T09:51:02.753Z,15.23
2019-05-15T09:52:02.744Z,15.26
2019-05-15T09:53:02.755Z,15.33
2019-05-15T09:54:02.727Z,15.43
2019-05-15T09:55:02.714Z,15.45
2019-05-15T09:56:02.701Z,15.59
2019-05-15T09:57:02.692Z,15.50
2019-05-15T09:58:02.699Z,15.59
2019-05-15T09:59:02.663Z,15.66
2019-05-15T10:00:02.654Z,15.70
2019-05-15T10:01:02.652Z,15.69
2019-05-15T10:02:02.635Z,15.83
2019-05-15T10:03:02.643Z,15.83
2019-05-15T10:04:02.614Z,15.91
2019-05-15T10:05:06.456Z,15.90
2019-05-15T10:06:03.590Z,15.96
2019-05-15T10:07:02.577Z,15.98
2019-05-15T10:08:02.600Z,16.05
2019-05-15T10:09:02.557Z,16.05
2019-05-15T10:10:02.548Z,16.06
2019-05-15T10:11:02.534Z,16.09
2019-05-15T10:12:02.542Z,16.03
2019-05-15T10:13:02.512Z,16.13
2019-05-15T10:14:02.523Z,16.18
2019-05-15T10:15:02.491Z,16.29
2019-05-15T10:16:02.478Z,16.29
2019-05-15T10:17:02.520Z,16.28
2019-05-15T10:18:02.459Z,16.39
2019-05-15T10:19:02.479Z,16.51
2019-05-15T10:20:02.434Z,16.59
2019-05-15T10:21:02.554Z,16.62
2019-05-15T10:22:02.412Z,16.73
2019-05-15T10:23:02.400Z,16.70
2019-05-15T10:24:02.415Z,16.76
2019-05-15T10:25:02.383Z,16.83
2019-05-15T10:26:02.390Z,16.80
2019-05-15T10:27:02.359Z,16.90
2019-05-15T10:28:02.427Z,16.84
2019-05-15T10:29:02.357Z,17.01
2019-05-15T10:30:02.325Z,16.95
2019-05-15T10:31:02.312Z,17.07
2019-05-15T10:32:02.302Z,17.13
2019-05-15T10:33:02.297Z,17.16
2019-05-15T10:34:02.300Z,17.34
2019-05-15T10:35:02.277Z,17.27
2019-05-15T10:36:02.258Z,17.35
2019-05-15T10:37:02.244Z,17.38
2019-05-15T10:38:02.239Z,17.59
2019-05-15T10:39:02.302Z,17.63
2019-05-15T10:40:02.211Z,17.75
2019-05-15T10:41:08.802Z,17.72
2019-05-15T10:42:02.193Z,17.75
2019-05-15T10:43:02.222Z,17.65
2019-05-15T10:44:02.201Z,17.69
2019-05-15T10:45:02.155Z,17.75
2019-05-15T10:46:02.159Z,17.81
2019-05-15T10:47:02.141Z,17.72
2019-05-15T10:48:02.127Z,17.76
2019-05-15T10:49:02.140Z,17.81
2019-05-15T10:50:02.103Z,17.81
2019-05-15T10:51:07.312Z,17.86
2019-05-15T10:52:03.173Z,17.91
2019-05-15T10:53:02.100Z,18.05
2019-05-15T10:54:02.088Z,17.99
2019-05-15T10:55:02.054Z,17.94
2019-05-15T10:56:02.678Z,18.06
2019-05-15T10:57:05.150Z,18.13
2019-05-15T10:58:02.031Z,18.09
2019-05-15T10:59:02.030Z,18.18
2019-05-15T11:00:01.994Z,18.18
2019-05-15T11:01:03.323Z,18.23
2019-05-15T11:02:01.975Z,18.24
2019-05-15T11:03:01.967Z,18.41
2019-05-15T11:04:01.977Z,18.45
2019-05-15T11:05:01.941Z,18.41
2019-05-15T11:06:01.934Z,18.43
2019-05-15T11:07:01.922Z,18.45
2019-05-15T11:08:01.911Z,18.46
2019-05-15T11:09:01.923Z,18.52
2019-05-15T11:10:01.890Z,18.58
2019-05-15T11:11:01.879Z,18.57
2019-05-15T11:12:01.864Z,18.66
2019-05-15T11:13:01.870Z,18.68
2019-05-15T11:14:01.904Z,18.63
2019-05-15T11:15:01.835Z,18.61
2019-05-15T11:16:01.827Z,18.66
2019-05-15T11:17:01.810Z,18.61
2019-05-15T11:18:01.847Z,18.81
2019-05-15T11:19:01.815Z,18.78
2019-05-15T11:20:01.781Z,18.86
2019-05-15T11:21:01.778Z,18.85
2019-05-15T11:22:01.758Z,18.97
2019-05-15T11:23:01.758Z,18.96
2019-05-15T11:24:01.765Z,18.97
2019-05-15T11:25:01.728Z,18.98
2019-05-15T11:26:01.715Z,18.91
2019-05-15T11:27:01.711Z,19.04
2019-05-15T11:28:01.699Z,19.17
2019-05-15T11:29:01.712Z,19.23
2019-05-15T11:30:01.679Z,19.26
2019-05-15T11:31:01.666Z,19.22
2019-05-15T11:32:01.653Z,19.31
2019-05-15T11:33:01.669Z,19.41
2019-05-15T11:34:01.662Z,19.47
2019-05-15T11:35:04.363Z,19.38
2019-05-15T11:36:05.743Z,19.24
2019-05-15T11:37:01.652Z,19.16
2019-05-15T11:38:01.596Z,19.26
2019-05-15T11:39:01.602Z,19.24
2019-05-15T11:40:01.575Z,19.24
2019-05-15T11:41:04.558Z,19.27
2019-05-15T11:42:01.550Z,19.31
2019-05-15T11:43:01.556Z,19.42
2019-05-15T11:44:01.549Z,19.41
2019-05-15T11:45:01.516Z,19.52
2019-05-15T11:46:01.506Z,19.52
2019-05-15T11:47:01.497Z,19.49
2019-05-15T11:48:01.483Z,19.54
2019-05-15T11:49:01.493Z,19.59
2019-05-15T11:50:01.458Z,19.68
2019-05-15T11:51:01.447Z,19.71
2019-05-15T11:52:01.436Z,19.60
2019-05-15T11:53:01.426Z,19.57
2019-05-15T11:54:01.442Z,19.49
2019-05-15T11:55:01.404Z,19.60
2019-05-15T11:56:01.396Z,19.68
2019-05-15T11:57:01.381Z,19.68
2019-05-15T11:58:01.369Z,19.75
2019-05-15T11:59:01.386Z,19.75
2019-05-15T12:00:01.604Z,19.84
2019-05-15T12:01:01.338Z,19.90
2019-05-15T12:02:01.327Z,19.97
2019-05-15T12:03:01.317Z,19.96
2019-05-15T12:04:01.347Z,19.94
2019-05-15T12:05:01.290Z,20.08
2019-05-15T12:06:14.937Z,20.04
2019-05-15T12:07:02.631Z,19.90
2019-05-15T12:08:01.263Z,19.97
2019-05-15T12:09:01.260Z,20.05
2019-05-15T12:10:01.263Z,19.94
2019-05-15T12:11:01.229Z,19.97
2019-05-15T12:12:01.224Z,20.05
2019-05-15T12:13:01.214Z,20.07
2019-05-15T12:14:01.196Z,20.07
2019-05-15T12:15:01.213Z,19.99
2019-05-15T12:16:01.183Z,19.94
2019-05-15T12:18:02.170Z,20.05
2019-05-15T12:19:09.177Z,20.14
2019-05-15T12:20:06.383Z,20.14
2019-05-15T12:21:02.123Z,20.09
2019-05-15T12:22:01.114Z,20.18
2019-05-15T12:23:01.107Z,20.29
2019-05-15T12:24:01.098Z,20.25
2019-05-15T12:25:01.612Z,20.17
2019-05-15T12:26:01.077Z,20.23
2019-05-15T12:27:13.949Z,20.26
2019-05-15T12:28:01.054Z,20.27
2019-05-15T12:29:01.043Z,20.41
2019-05-15T12:30:01.063Z,20.44
2019-05-15T12:31:01.022Z,20.49
2019-05-15T12:32:21.997Z,20.50
2019-05-15T12:33:01.002Z,20.55
2019-05-15T12:34:00.987Z,20.52
2019-05-15T12:35:01.002Z,20.56
2019-05-15T12:36:00.983Z,20.52
2019-05-15T12:37:00.960Z,20.50
2019-05-15T12:38:00.949Z,20.53
2019-05-15T12:39:09.440Z,20.60
2019-05-15T13:00:00.742Z,20.83
2019-05-15T13:01:12.765Z,20.75
2019-05-15T13:02:00.696Z,20.67
2019-05-15T13:03:00.695Z,20.70
2019-05-15T13:04:00.677Z,20.70
2019-05-15T13:05:00.688Z,20.75
2019-05-15T13:06:00.656Z,20.75
2019-05-15T13:07:12.913Z,20.92
2019-05-15T13:08:01.632Z,20.98
2019-05-15T13:09:00.619Z,20.93
2019-05-15T13:10:00.641Z,20.95
2019-05-15T13:11:00.602Z,20.97
2019-05-15T13:12:00.590Z,20.85
2019-05-15T13:13:05.098Z,21.10
2019-05-15T13:14:00.569Z,21.10
2019-05-15T13:15:00.582Z,21.10
2019-05-15T13:16:00.547Z,21.07
2019-05-15T13:17:00.539Z,21.05
2019-05-15T13:18:00.527Z,21.18
2019-05-15T13:19:00.518Z,21.16
2019-05-15T13:20:00.529Z,21.20
2019-05-15T13:21:00.492Z,21.14
2019-05-15T13:22:00.483Z,21.19
2019-05-15T13:23:00.514Z,21.20
2019-05-15T13:24:00.464Z,21.14
2019-05-15T13:25:00.477Z,21.10
2019-05-15T13:26:00.441Z,21.10
2019-05-15T13:27:00.431Z,21.03
2019-05-15T13:28:00.419Z,21.04